Sakura — JG5711 — position and weather

sailwx.info

Track history (hours):
 
Tides and Currents Weather Stations Pressure Air Temp Water Temp Dewpoint Dewpoint Depression Visibility Wind Speed Wind Dir Waves Ship Positions

Sakura

Last reported at 2017-Nov-18 04:30 UTC. Time now 2017-Nov-18 04:52 UTC.
Position N 35°27' E 139°40'.

Length 32 m; draft 3.6 m.

Type: Tug. MMSI: 431101178.

Date/timePositionNaut miles runAvg speedWind from/ knotsBaromVisibWave heightAir tempDewpointWater temp
2017-Nov-18 04:30N 35°27' E 139°40'0 0.0
2017-Nov-18 04:00N 35°27' E 139°40'0 0.0
2017-Nov-18 03:30N 35°27' E 139°40'0 0.0
2017-Nov-18 03:00N 35°27' E 139°40'0 0.0
2017-Nov-18 02:30N 35°27' E 139°40'0 0.0
2017-Nov-18 02:00N 35°27' E 139°40'0 0.0
2017-Nov-18 01:30N 35°27' E 139°40'0 0.0
2017-Nov-18 01:00N 35°27' E 139°40'0 0.0
2017-Nov-18 00:30N 35°27' E 139°40'0 0.0
2017-Nov-18 00:00N 35°27' E 139°40'0 0.0
2017-Nov-17 23:30N 35°27' E 139°40'0 0.0
2017-Nov-17 07:20N 35°27' E 139°40'0 0.0
2017-Nov-17 07:00N 35°27' E 139°40'0 0.0
2017-Nov-17 06:30N 35°27' E 139°40'0 0.0
2017-Nov-17 06:00N 35°27' E 139°40'0 0.0
2017-Nov-17 05:30N 35°27' E 139°40'0 0.0
2017-Nov-17 05:00N 35°27' E 139°40'0 0.0
2017-Nov-17 04:30N 35°27' E 139°40'0 0.0
2017-Nov-17 04:00N 35°27' E 139°40'0 0.0
2017-Nov-17 03:30N 35°27' E 139°40'0 0.0
2017-Nov-17 03:00N 35°27' E 139°40'0 0.0
2017-Nov-17 02:30N 35°27' E 139°40'0 0.0
2017-Nov-17 02:00N 35°27' E 139°40'0 0.0
2017-Nov-17 01:30N 35°27' E 139°40'0 0.0
2017-Nov-17 01:00N 35°27' E 139°40'0 0.0
2017-Nov-17 00:30N 35°27' E 139°40'0 0.5
2017-Nov-17 00:00N 35°27' E 139°40'510.9
2017-Nov-16 23:30N 35°31' E 139°45'1 1.1
2017-Nov-16 23:00N 35°30' E 139°45'2 3.3
2017-Nov-16 22:30N 35°29' E 139°43'2 4.4
2017-Nov-16 22:00N 35°27' E 139°43'3 5.6
2017-Nov-16 21:30N 35°28' E 139°46'4 8.4
2017-Nov-16 21:01N 35°27' E 139°41'1 2.5
2017-Nov-16 20:30N 35°27' E 139°40'0 0.0
2017-Nov-16 20:00N 35°27' E 139°40'0 0.0
2017-Nov-16 19:30N 35°27' E 139°40'0 0.0
2017-Nov-16 09:23N 35°27' E 139°40'0 0.0
2017-Nov-16 09:00N 35°27' E 139°40'0 0.0
2017-Nov-16 08:30N 35°27' E 139°40'0 0.0
2017-Nov-16 08:00N 35°27' E 139°40'0 0.0
2017-Nov-16 07:30N 35°27' E 139°40'0 0.0
2017-Nov-16 07:00N 35°27' E 139°40'0 0.0
2017-Nov-16 06:30N 35°27' E 139°40'0 0.0
2017-Nov-16 06:00N 35°27' E 139°40'0 0.0
2017-Nov-16 05:30N 35°27' E 139°40'0 0.0
2017-Nov-16 05:00N 35°27' E 139°40'0 0.0
2017-Nov-16 04:30N 35°27' E 139°40'0 0.0
2017-Nov-16 04:00N 35°27' E 139°40'0 0.0
2017-Nov-16 03:30N 35°27' E 139°40'0 0.0
2017-Nov-16 03:00N 35°27' E 139°40'0 0.0
2017-Nov-16 02:30N 35°27' E 139°40'4 7.9
2017-Nov-16 02:00N 35°30' E 139°43'3 5.1
2017-Nov-16 01:29N 35°31' E 139°46'0 0.5
2017-Nov-16 01:00N 35°31' E 139°46'3 5.6
2017-Nov-16 00:30N 35°29' E 139°48'2 3.9
2017-Nov-16 00:00N 35°29' E 139°46'0 0.4
2017-Nov-15 23:30N 35°29' E 139°46'4 7.9
2017-Nov-15 23:00N 35°27' E 139°42'2 3.8
2017-Nov-15 22:30N 35°27' E 139°40'0 0.0
2017-Nov-15 22:00N 35°27' E 139°40'0 0.0
2017-Nov-15 07:11N 35°27' E 139°40'0 0.0
2017-Nov-15 07:00N 35°27' E 139°40'0 0.0
2017-Nov-15 06:30N 35°27' E 139°40'0 0.0
2017-Nov-15 06:00N 35°27' E 139°40'0 0.0
2017-Nov-15 05:30N 35°27' E 139°40'0 0.0
2017-Nov-15 05:00N 35°27' E 139°40'0 0.0
2017-Nov-15 04:30N 35°27' E 139°40'0 0.0
2017-Nov-15 04:00N 35°27' E 139°40'0 0.0
2017-Nov-15 03:30N 35°27' E 139°40'1 1.1
2017-Nov-15 03:01N 35°27' E 139°40'1 2.6
2017-Nov-15 02:30N 35°26' E 139°41'1 2.6
2017-Nov-15 02:00N 35°27' E 139°40'0 0.0
2017-Nov-15 01:30N 35°27' E 139°40'0 0.0
2017-Nov-15 01:00N 35°27' E 139°40'0 0.0
2017-Nov-15 00:30N 35°27' E 139°40'0 0.0
2017-Nov-15 00:00N 35°27' E 139°40'0 0.0
2017-Nov-14 23:30N 35°27' E 139°40'0 0.0
2017-Nov-14 23:00N 35°27' E 139°40'2 3.3
2017-Nov-14 22:31N 35°28' E 139°41'0 0.5
2017-Nov-14 22:00N 35°28' E 139°41'2 4.1
2017-Nov-14 21:30N 35°27' E 139°43'1 2.6
2017-Nov-14 21:00N 35°26' E 139°44'3 6.2
2017-Nov-14 20:30N 35°27' E 139°41'1 1.8
2017-Nov-14 20:00N 35°27' E 139°40'0 0.0
2017-Nov-14 19:30N 35°27' E 139°40'0 0.0
2017-Nov-14 19:00N 35°27' E 139°40'0 0.0
2017-Nov-14 18:31N 35°27' E 139°40'0 0.0
2017-Nov-14 18:01N 35°27' E 139°40'0 0.0
2017-Nov-14 17:30N 35°27' E 139°40'0 0.0
2017-Nov-14 17:01N 35°27' E 139°40'0 0.0
2017-Nov-14 16:31N 35°27' E 139°40'0 0.0
2017-Nov-14 16:00N 35°27' E 139°40'0 0.0
2017-Nov-14 15:31N 35°27' E 139°40'0 0.0
2017-Nov-14 15:01N 35°27' E 139°40'0 0.0
2017-Nov-14 14:30N 35°27' E 139°40'0 0.0
2017-Nov-14 14:01N 35°27' E 139°40'0 0.0
2017-Nov-14 13:31N 35°27' E 139°40'0 0.0
2017-Nov-14 13:00N 35°27' E 139°40'0 0.0
2017-Nov-14 12:30N 35°27' E 139°40'0 0.0
2017-Nov-14 12:00N 35°27' E 139°40'2 3.2
2017-Nov-14 11:31N 35°27' E 139°42'1 1.3
2017-Nov-14 11:01N 35°26' E 139°41'0 0.2
2017-Nov-14 10:31N 35°26' E 139°41'1 1.7
2017-Nov-14 10:00N 35°27' E 139°42'0 0.0
2017-Nov-14 09:31N 35°27' E 139°42'1 2.4
2017-Nov-14 09:00N 35°28' E 139°42'0 0.9
2017-Nov-14 08:30N 35°28' E 139°42'2 4.9
2017-Nov-14 08:00N 35°26' E 139°44'2 4.2
2017-Nov-14 07:31N 35°27' E 139°42'2 3.5
2017-Nov-14 07:00N 35°27' E 139°39'0 0.0
2017-Nov-14 06:31N 35°27' E 139°39'0 0.0
2017-Nov-14 06:00N 35°27' E 139°39'0 0.0
2017-Nov-14 05:31N 35°27' E 139°39'0 0.0
2017-Nov-14 05:01N 35°27' E 139°39'4 7.4
2017-Nov-14 04:30N 35°28' E 139°44'5 9.5
2017-Nov-14 04:00N 35°30' E 139°49'710.5
2017-Nov-14 03:20N 35°29' E 139°58'0 1.3
2017-Nov-14 03:00N 35°28' E 139°58'0 0.1
2017-Nov-14 02:30N 35°28' E 139°58'1 0.3
2017-Nov-14 00:19N 35°29' E 139°59'1 4.6
2017-Nov-13 23:59N 35°29' E 140°00'0 0.1
2017-Nov-13 23:19N 35°29' E 140°00'411.1
2017-Nov-13 22:59N 35°29' E 139°56'612.5
2017-Nov-13 22:30N 35°27' E 139°49'611.8
2017-Nov-13 22:00N 35°27' E 139°42'3 0.1
2017-Nov-13 02:00N 35°29' E 139°43'3 6.0
2017-Nov-13 01:31N 35°31' E 139°46'0 0.0
2017-Nov-13 01:01N 35°31' E 139°46'0 0.5
2017-Nov-13 00:30N 35°31' E 139°46'2 3.2
2017-Nov-13 00:00N 35°30' E 139°48'3 5.2
2017-Nov-12 23:31N 35°27' E 139°47'2 4.5
2017-Nov-12 22:59N 35°26' E 139°45'4 8.7
2017-Nov-12 22:31N 35°27' E 139°40'0 0.5
2017-Nov-12 22:01N 35°27' E 139°40'0 0.0
2017-Nov-12 21:31N 35°27' E 139°40'0 0.0
2017-Nov-12 21:01N 35°27' E 139°40'0 0.0
2017-Nov-11 23:44N 35°27' E 139°40'0 0.0
2017-Nov-11 23:30N 35°27' E 139°40'0 0.0
2017-Nov-11 23:00N 35°27' E 139°40'2 3.8
2017-Nov-11 22:30N 35°25' E 139°41'0 0.8
2017-Nov-11 22:01N 35°25' E 139°41'3 5.6
2017-Nov-11 21:30N 35°26' E 139°44'4 7.1
2017-Nov-11 21:01N 35°30' E 139°46'0 0.3
2017-Nov-11 20:31N 35°30' E 139°46'0 0.2
2017-Nov-11 19:49N 35°30' E 139°46'0 0.0
2017-Nov-11 19:28N 35°30' E 139°46'0 0.0
2017-Nov-11 19:00N 35°30' E 139°46'0 0.0
2017-Nov-11 18:30N 35°30' E 139°46'0 0.0
2017-Nov-11 17:59N 35°30' E 139°46'2 3.6
2017-Nov-11 17:30N 35°28' E 139°45'3 5.6
2017-Nov-11 17:00N 35°28' E 139°41'0 0.2
2017-Nov-11 16:30N 35°28' E 139°42'0 1.0
2017-Nov-11 16:01N 35°28' E 139°42'0 0.0
2017-Nov-11 15:31N 35°28' E 139°42'0 0.7
2017-Nov-11 15:00N 35°28' E 139°42'0 0.6
2017-Nov-11 14:31N 35°28' E 139°42'1 1.7
2017-Nov-11 14:00N 35°27' E 139°42'0 0.0
2017-Nov-11 13:30N 35°27' E 139°42'0 0.0
2017-Nov-11 13:00N 35°27' E 139°42'0 0.0
2017-Nov-11 12:30N 35°27' E 139°42'0 0.0
2017-Nov-11 12:00N 35°27' E 139°42'0 0.0
2017-Nov-11 11:30N 35°27' E 139°42'0 0.0
2017-Nov-11 11:00N 35°27' E 139°42'0 0.0
2017-Nov-11 10:30N 35°27' E 139°42'1 2.8
2017-Nov-11 10:01N 35°27' E 139°41'1 2.6
2017-Nov-11 09:30N 35°26' E 139°42'0 1.0
2017-Nov-11 09:00N 35°27' E 139°42'0 0.0
2017-Nov-11 08:30N 35°27' E 139°42'1 1.9
2017-Nov-11 08:00N 35°26' E 139°41'0 0.1
2017-Nov-11 07:30N 35°26' E 139°41'1 2.4
2017-Nov-11 07:00N 35°27' E 139°40'0 0.0
2017-Nov-11 06:30N 35°27' E 139°40'0 0.0
2017-Nov-11 06:00N 35°27' E 139°40'0 0.0
2017-Nov-11 05:30N 35°27' E 139°40'0 0.0
2017-Nov-11 05:00N 35°27' E 139°40'0 0.0
2017-Nov-11 04:30N 35°27' E 139°40'0 0.0
2017-Nov-11 04:00N 35°27' E 139°40'0 0.0
2017-Nov-11 03:30N 35°27' E 139°40'0 0.0
2017-Nov-11 03:00N 35°27' E 139°40'0 0.0
2017-Nov-11 02:30N 35°27' E 139°40'0 0.0
2017-Nov-11 02:00N 35°27' E 139°40'0 0.0
2017-Nov-11 01:30N 35°27' E 139°40'0 0.0
2017-Nov-11 01:00N 35°27' E 139°40'0 0.0
2017-Nov-11 00:30N 35°27' E 139°40'0 0.0
2017-Nov-11 00:00N 35°27' E 139°40'1 2.1
2017-Nov-10 23:30N 35°27' E 139°41'0 0.4
2017-Nov-10 23:00N 35°27' E 139°41'2 3.8
2017-Nov-10 22:30N 35°26' E 139°43'3 5.8
2017-Nov-10 22:00N 35°27' E 139°40'0 0.7
2017-Nov-10 21:30N 35°27' E 139°40'0 0.0
2017-Nov-10 21:00N 35°27' E 139°40'0 0.0
2017-Nov-10 20:30N 35°27' E 139°40'0 0.0
2017-Nov-10 07:14N 35°27' E 139°40'0 0.0
2017-Nov-10 07:00N 35°27' E 139°40'0 0.0
2017-Nov-10 06:30N 35°27' E 139°40'0 0.0
2017-Nov-10 06:00N 35°27' E 139°40'0 0.0
2017-Nov-10 05:30N 35°27' E 139°40'0 0.0
2017-Nov-10 05:00N 35°27' E 139°40'0 0.0
2017-Nov-10 04:30N 35°27' E 139°40'0 0.0
2017-Nov-10 04:00N 35°27' E 139°40'0 0.0
2017-Nov-10 03:30N 35°27' E 139°40'0 0.0
2017-Nov-10 03:00N 35°27' E 139°40'0 0.0
2017-Nov-10 02:30N 35°27' E 139°40'0 0.0
2017-Nov-10 02:00N 35°27' E 139°40'0 0.0
2017-Nov-10 01:30N 35°27' E 139°40'0 0.0
2017-Nov-10 01:00N 35°27' E 139°40'0 0.0
2017-Nov-10 00:30N 35°27' E 139°40'3 6.4
2017-Nov-10 00:00N 35°29' E 139°42'0 0.9
2017-Nov-09 23:30N 35°29' E 139°43'2 4.2
2017-Nov-09 23:00N 35°27' E 139°43'2 3.1
2017-Nov-09 22:31N 35°27' E 139°45'3 6.8
2017-Nov-09 22:00N 35°27' E 139°40'1 1.5
2017-Nov-09 21:30N 35°27' E 139°40'0 0.0
2017-Nov-09 07:17N 35°27' E 139°40'0 0.0
2017-Nov-09 07:00N 35°27' E 139°40'0 0.0
2017-Nov-09 06:30N 35°27' E 139°40'0 0.0
2017-Nov-09 06:00N 35°27' E 139°40'0 0.0
2017-Nov-09 05:30N 35°27' E 139°40'0 0.3
2017-Nov-09 05:00N 35°27' E 139°40'1 2.7
2017-Nov-09 04:30N 35°26' E 139°41'1 1.8
2017-Nov-09 04:00N 35°26' E 139°42'1 2.3
2017-Nov-09 03:30N 35°26' E 139°43'2 3.2
2017-Nov-09 03:00N 35°27' E 139°41'2 3.1
2017-Nov-09 02:30N 35°27' E 139°40'0 0.0
2017-Nov-09 02:00N 35°27' E 139°40'0 0.0
2017-Nov-09 01:30N 35°27' E 139°40'0 0.0
2017-Nov-09 01:00N 35°27' E 139°40'0 0.0
2017-Nov-09 00:30N 35°27' E 139°40'0 0.0
2017-Nov-09 00:00N 35°27' E 139°40'0 0.0
2017-Nov-08 23:30N 35°27' E 139°40'0 0.0
2017-Nov-08 23:00N 35°27' E 139°40'0 0.0
2017-Nov-08 22:30N 35°27' E 139°40'0 0.0
2017-Nov-08 22:00N 35°27' E 139°40'0 0.0
2017-Nov-08 21:30N 35°27' E 139°40'0 0.0
2017-Nov-08 21:00N 35°27' E 139°40'0 0.0
2017-Nov-08 20:30N 35°27' E 139°40'0 0.0
2017-Nov-08 20:00N 35°27' E 139°40'0 0.0
2017-Nov-08 19:30N 35°27' E 139°40'0 0.0
2017-Nov-08 19:00N 35°27' E 139°40'0 0.0
2017-Nov-08 18:30N 35°27' E 139°40'0 0.0
2017-Nov-08 18:00N 35°27' E 139°40'0 0.0
2017-Nov-08 17:30N 35°27' E 139°40'0 0.0
2017-Nov-08 17:00N 35°27' E 139°40'0 0.0
2017-Nov-08 16:30N 35°27' E 139°40'0 0.0
2017-Nov-08 16:00N 35°27' E 139°40'0 0.0
2017-Nov-08 15:30N 35°27' E 139°40'0 0.0
2017-Nov-08 15:00N 35°27' E 139°40'0 0.0
2017-Nov-08 14:30N 35°27' E 139°40'0 0.0
2017-Nov-08 14:00N 35°27' E 139°40'0 0.0
2017-Nov-08 13:30N 35°27' E 139°40'0 0.0
2017-Nov-08 13:00N 35°27' E 139°40'0 0.0
2017-Nov-08 12:30N 35°27' E 139°40'0 0.0
2017-Nov-08 12:00N 35°27' E 139°40'0 0.0
2017-Nov-08 11:30N 35°27' E 139°40'0 0.0
2017-Nov-08 11:00N 35°27' E 139°40'0 0.0
2017-Nov-08 10:30N 35°27' E 139°40'0 0.0
2017-Nov-08 10:00N 35°27' E 139°40'0 0.0
2017-Nov-08 09:30N 35°27' E 139°40'2 4.3
2017-Nov-08 09:01N 35°28' E 139°41'0 0.9
2017-Nov-08 08:30N 35°28' E 139°42'1 1.8
2017-Nov-08 08:00N 35°27' E 139°43'0 0.8
2017-Nov-08 07:30N 35°27' E 139°43'0 0.9
2017-Nov-08 07:00N 35°27' E 139°43'0 0.0
2017-Nov-08 06:30N 35°27' E 139°43'1 2.5
2017-Nov-08 06:00N 35°27' E 139°41'1 2.5
2017-Nov-08 05:30N 35°27' E 139°40'0 0.0
2017-Nov-08 05:00N 35°27' E 139°40'  
Track history (hours):
 
Tides and Currents Weather Stations Pressure Air Temp Water Temp Dewpoint Dewpoint Depression Visibility Wind Speed Wind Dir Waves Ship Positions

Sakura

Last reported at 2017-Nov-18 04:30 UTC. Time now 2017-Nov-18 04:52 UTC.
Position N 35°27' E 139°40'.

Length 32 m; draft 3.6 m.

Type: Tug. MMSI: 431101178.

Date/timePositionNaut miles runAvg speedWind from/ knotsBaromVisibWave heightAir tempDewpointWater temp
2017-Nov-18 04:30N 35°27' E 139°40'0 0.0
2017-Nov-18 04:00N 35°27' E 139°40'0 0.0
2017-Nov-18 03:30N 35°27' E 139°40'0 0.0
2017-Nov-18 03:00N 35°27' E 139°40'0 0.0
2017-Nov-18 02:30N 35°27' E 139°40'0 0.0
2017-Nov-18 02:00N 35°27' E 139°40'0 0.0
2017-Nov-18 01:30N 35°27' E 139°40'0 0.0
2017-Nov-18 01:00N 35°27' E 139°40'0 0.0
2017-Nov-18 00:30N 35°27' E 139°40'0 0.0
2017-Nov-18 00:00N 35°27' E 139°40'0 0.0
2017-Nov-17 23:30N 35°27' E 139°40'0 0.0
2017-Nov-17 07:20N 35°27' E 139°40'0 0.0
2017-Nov-17 07:00N 35°27' E 139°40'0 0.0
2017-Nov-17 06:30N 35°27' E 139°40'0 0.0
2017-Nov-17 06:00N 35°27' E 139°40'0 0.0
2017-Nov-17 05:30N 35°27' E 139°40'0 0.0
2017-Nov-17 05:00N 35°27' E 139°40'0 0.0
2017-Nov-17 04:30N 35°27' E 139°40'0 0.0
2017-Nov-17 04:00N 35°27' E 139°40'0 0.0
2017-Nov-17 03:30N 35°27' E 139°40'0 0.0
2017-Nov-17 03:00N 35°27' E 139°40'0 0.0
2017-Nov-17 02:30N 35°27' E 139°40'0 0.0
2017-Nov-17 02:00N 35°27' E 139°40'0 0.0
2017-Nov-17 01:30N 35°27' E 139°40'0 0.0
2017-Nov-17 01:00N 35°27' E 139°40'0 0.0
2017-Nov-17 00:30N 35°27' E 139°40'0 0.5
2017-Nov-17 00:00N 35°27' E 139°40'510.9
2017-Nov-16 23:30N 35°31' E 139°45'1 1.1
2017-Nov-16 23:00N 35°30' E 139°45'2 3.3
2017-Nov-16 22:30N 35°29' E 139°43'2 4.4
2017-Nov-16 22:00N 35°27' E 139°43'3 5.6
2017-Nov-16 21:30N 35°28' E 139°46'4 8.4
2017-Nov-16 21:01N 35°27' E 139°41'1 2.5
2017-Nov-16 20:30N 35°27' E 139°40'0 0.0
2017-Nov-16 20:00N 35°27' E 139°40'0 0.0
2017-Nov-16 19:30N 35°27' E 139°40'0 0.0
2017-Nov-16 09:23N 35°27' E 139°40'0 0.0
2017-Nov-16 09:00N 35°27' E 139°40'0 0.0
2017-Nov-16 08:30N 35°27' E 139°40'0 0.0
2017-Nov-16 08:00N 35°27' E 139°40'0 0.0
2017-Nov-16 07:30N 35°27' E 139°40'0 0.0
2017-Nov-16 07:00N 35°27' E 139°40'0 0.0
2017-Nov-16 06:30N 35°27' E 139°40'0 0.0
2017-Nov-16 06:00N 35°27' E 139°40'0 0.0
2017-Nov-16 05:30N 35°27' E 139°40'0 0.0
2017-Nov-16 05:00N 35°27' E 139°40'0 0.0
2017-Nov-16 04:30N 35°27' E 139°40'0 0.0
2017-Nov-16 04:00N 35°27' E 139°40'0 0.0
2017-Nov-16 03:30N 35°27' E 139°40'0 0.0
2017-Nov-16 03:00N 35°27' E 139°40'0 0.0
2017-Nov-16 02:30N 35°27' E 139°40'4 7.9
2017-Nov-16 02:00N 35°30' E 139°43'3 5.1
2017-Nov-16 01:29N 35°31' E 139°46'0 0.5
2017-Nov-16 01:00N 35°31' E 139°46'3 5.6
2017-Nov-16 00:30N 35°29' E 139°48'2 3.9
2017-Nov-16 00:00N 35°29' E 139°46'0 0.4
2017-Nov-15 23:30N 35°29' E 139°46'4 7.9
2017-Nov-15 23:00N 35°27' E 139°42'2 3.8
2017-Nov-15 22:30N 35°27' E 139°40'0 0.0
2017-Nov-15 22:00N 35°27' E 139°40'0 0.0
2017-Nov-15 07:11N 35°27' E 139°40'0 0.0
2017-Nov-15 07:00N 35°27' E 139°40'0 0.0
2017-Nov-15 06:30N 35°27' E 139°40'0 0.0
2017-Nov-15 06:00N 35°27' E 139°40'0 0.0
2017-Nov-15 05:30N 35°27' E 139°40'0 0.0
2017-Nov-15 05:00N 35°27' E 139°40'0 0.0
2017-Nov-15 04:30N 35°27' E 139°40'0 0.0
2017-Nov-15 04:00N 35°27' E 139°40'0 0.0
2017-Nov-15 03:30N 35°27' E 139°40'1 1.1
2017-Nov-15 03:01N 35°27' E 139°40'1 2.6
2017-Nov-15 02:30N 35°26' E 139°41'1 2.6
2017-Nov-15 02:00N 35°27' E 139°40'0 0.0
2017-Nov-15 01:30N 35°27' E 139°40'0 0.0
2017-Nov-15 01:00N 35°27' E 139°40'0 0.0
2017-Nov-15 00:30N 35°27' E 139°40'0 0.0
2017-Nov-15 00:00N 35°27' E 139°40'0 0.0
2017-Nov-14 23:30N 35°27' E 139°40'0 0.0
2017-Nov-14 23:00N 35°27' E 139°40'2 3.3
2017-Nov-14 22:31N 35°28' E 139°41'0 0.5
2017-Nov-14 22:00N 35°28' E 139°41'2 4.1
2017-Nov-14 21:30N 35°27' E 139°43'1 2.6
2017-Nov-14 21:00N 35°26' E 139°44'3 6.2
2017-Nov-14 20:30N 35°27' E 139°41'1 1.8
2017-Nov-14 20:00N 35°27' E 139°40'0 0.0
2017-Nov-14 19:30N 35°27' E 139°40'0 0.0
2017-Nov-14 19:00N 35°27' E 139°40'0 0.0
2017-Nov-14 18:31N 35°27' E 139°40'0 0.0
2017-Nov-14 18:01N 35°27' E 139°40'0 0.0
2017-Nov-14 17:30N 35°27' E 139°40'0 0.0
2017-Nov-14 17:01N 35°27' E 139°40'0 0.0
2017-Nov-14 16:31N 35°27' E 139°40'0 0.0
2017-Nov-14 16:00N 35°27' E 139°40'0 0.0
2017-Nov-14 15:31N 35°27' E 139°40'0 0.0
2017-Nov-14 15:01N 35°27' E 139°40'0 0.0
2017-Nov-14 14:30N 35°27' E 139°40'0 0.0
2017-Nov-14 14:01N 35°27' E 139°40'0 0.0
2017-Nov-14 13:31N 35°27' E 139°40'0 0.0
2017-Nov-14 13:00N 35°27' E 139°40'0 0.0
2017-Nov-14 12:30N 35°27' E 139°40'0 0.0
2017-Nov-14 12:00N 35°27' E 139°40'2 3.2
2017-Nov-14 11:31N 35°27' E 139°42'1 1.3
2017-Nov-14 11:01N 35°26' E 139°41'0 0.2
2017-Nov-14 10:31N 35°26' E 139°41'1 1.7
2017-Nov-14 10:00N 35°27' E 139°42'0 0.0
2017-Nov-14 09:31N 35°27' E 139°42'1 2.4
2017-Nov-14 09:00N 35°28' E 139°42'0 0.9
2017-Nov-14 08:30N 35°28' E 139°42'2 4.9
2017-Nov-14 08:00N 35°26' E 139°44'2 4.2
2017-Nov-14 07:31N 35°27' E 139°42'2 3.5
2017-Nov-14 07:00N 35°27' E 139°39'0 0.0
2017-Nov-14 06:31N 35°27' E 139°39'0 0.0
2017-Nov-14 06:00N 35°27' E 139°39'0 0.0
2017-Nov-14 05:31N 35°27' E 139°39'0 0.0
2017-Nov-14 05:01N 35°27' E 139°39'4 7.4
2017-Nov-14 04:30N 35°28' E 139°44'5 9.5
2017-Nov-14 04:00N 35°30' E 139°49'710.5
2017-Nov-14 03:20N 35°29' E 139°58'0 1.3
2017-Nov-14 03:00N 35°28' E 139°58'0 0.1
2017-Nov-14 02:30N 35°28' E 139°58'1 0.3
2017-Nov-14 00:19N 35°29' E 139°59'1 4.6
2017-Nov-13 23:59N 35°29' E 140°00'0 0.1
2017-Nov-13 23:19N 35°29' E 140°00'411.1
2017-Nov-13 22:59N 35°29' E 139°56'612.5
2017-Nov-13 22:30N 35°27' E 139°49'611.8
2017-Nov-13 22:00N 35°27' E 139°42'3 0.1
2017-Nov-13 02:00N 35°29' E 139°43'3 6.0
2017-Nov-13 01:31N 35°31' E 139°46'0 0.0
2017-Nov-13 01:01N 35°31' E 139°46'0 0.5
2017-Nov-13 00:30N 35°31' E 139°46'2 3.2
2017-Nov-13 00:00N 35°30' E 139°48'3 5.2
2017-Nov-12 23:31N 35°27' E 139°47'2 4.5
2017-Nov-12 22:59N 35°26' E 139°45'4 8.7
2017-Nov-12 22:31N 35°27' E 139°40'0 0.5
2017-Nov-12 22:01N 35°27' E 139°40'0 0.0
2017-Nov-12 21:31N 35°27' E 139°40'0 0.0
2017-Nov-12 21:01N 35°27' E 139°40'0 0.0
2017-Nov-11 23:44N 35°27' E 139°40'0 0.0
2017-Nov-11 23:30N 35°27' E 139°40'0 0.0
2017-Nov-11 23:00N 35°27' E 139°40'2 3.8
2017-Nov-11 22:30N 35°25' E 139°41'0 0.8
2017-Nov-11 22:01N 35°25' E 139°41'3 5.6
2017-Nov-11 21:30N 35°26' E 139°44'4 7.1
2017-Nov-11 21:01N 35°30' E 139°46'0 0.3
2017-Nov-11 20:31N 35°30' E 139°46'0 0.2
2017-Nov-11 19:49N 35°30' E 139°46'0 0.0
2017-Nov-11 19:28N 35°30' E 139°46'0 0.0
2017-Nov-11 19:00N 35°30' E 139°46'0 0.0
2017-Nov-11 18:30N 35°30' E 139°46'0 0.0
2017-Nov-11 17:59N 35°30' E 139°46'2 3.6
2017-Nov-11 17:30N 35°28' E 139°45'3 5.6
2017-Nov-11 17:00N 35°28' E 139°41'0 0.2
2017-Nov-11 16:30N 35°28' E 139°42'0 1.0
2017-Nov-11 16:01N 35°28' E 139°42'0 0.0
2017-Nov-11 15:31N 35°28' E 139°42'0 0.7
2017-Nov-11 15:00N 35°28' E 139°42'0 0.6
2017-Nov-11 14:31N 35°28' E 139°42'1 1.7
2017-Nov-11 14:00N 35°27' E 139°42'0 0.0
2017-Nov-11 13:30N 35°27' E 139°42'0 0.0
2017-Nov-11 13:00N 35°27' E 139°42'0 0.0
2017-Nov-11 12:30N 35°27' E 139°42'0 0.0
2017-Nov-11 12:00N 35°27' E 139°42'0 0.0
2017-Nov-11 11:30N 35°27' E 139°42'0 0.0
2017-Nov-11 11:00N 35°27' E 139°42'0 0.0
2017-Nov-11 10:30N 35°27' E 139°42'1 2.8
2017-Nov-11 10:01N 35°27' E 139°41'1 2.6
2017-Nov-11 09:30N 35°26' E 139°42'0 1.0
2017-Nov-11 09:00N 35°27' E 139°42'0 0.0
2017-Nov-11 08:30N 35°27' E 139°42'1 1.9
2017-Nov-11 08:00N 35°26' E 139°41'0 0.1
2017-Nov-11 07:30N 35°26' E 139°41'1 2.4
2017-Nov-11 07:00N 35°27' E 139°40'0 0.0
2017-Nov-11 06:30N 35°27' E 139°40'0 0.0
2017-Nov-11 06:00N 35°27' E 139°40'0 0.0
2017-Nov-11 05:30N 35°27' E 139°40'0 0.0
2017-Nov-11 05:00N 35°27' E 139°40'0 0.0
2017-Nov-11 04:30N 35°27' E 139°40'0 0.0
2017-Nov-11 04:00N 35°27' E 139°40'0 0.0
2017-Nov-11 03:30N 35°27' E 139°40'0 0.0
2017-Nov-11 03:00N 35°27' E 139°40'0 0.0
2017-Nov-11 02:30N 35°27' E 139°40'0 0.0
2017-Nov-11 02:00N 35°27' E 139°40'0 0.0
2017-Nov-11 01:30N 35°27' E 139°40'0 0.0
2017-Nov-11 01:00N 35°27' E 139°40'0 0.0
2017-Nov-11 00:30N 35°27' E 139°40'0 0.0
2017-Nov-11 00:00N 35°27' E 139°40'1 2.1
2017-Nov-10 23:30N 35°27' E 139°41'0 0.4
2017-Nov-10 23:00N 35°27' E 139°41'2 3.8
2017-Nov-10 22:30N 35°26' E 139°43'3 5.8
2017-Nov-10 22:00N 35°27' E 139°40'0 0.7
2017-Nov-10 21:30N 35°27' E 139°40'0 0.0
2017-Nov-10 21:00N 35°27' E 139°40'0 0.0
2017-Nov-10 20:30N 35°27' E 139°40'0 0.0
2017-Nov-10 07:14N 35°27' E 139°40'0 0.0
2017-Nov-10 07:00N 35°27' E 139°40'0 0.0
2017-Nov-10 06:30N 35°27' E 139°40'0 0.0
2017-Nov-10 06:00N 35°27' E 139°40'0 0.0
2017-Nov-10 05:30N 35°27' E 139°40'0 0.0
2017-Nov-10 05:00N 35°27' E 139°40'0 0.0
2017-Nov-10 04:30N 35°27' E 139°40'0 0.0
2017-Nov-10 04:00N 35°27' E 139°40'0 0.0
2017-Nov-10 03:30N 35°27' E 139°40'0 0.0
2017-Nov-10 03:00N 35°27' E 139°40'0 0.0
2017-Nov-10 02:30N 35°27' E 139°40'0 0.0
2017-Nov-10 02:00N 35°27' E 139°40'0 0.0
2017-Nov-10 01:30N 35°27' E 139°40'0 0.0
2017-Nov-10 01:00N 35°27' E 139°40'0 0.0
2017-Nov-10 00:30N 35°27' E 139°40'3 6.4
2017-Nov-10 00:00N 35°29' E 139°42'0 0.9
2017-Nov-09 23:30N 35°29' E 139°43'2 4.2
2017-Nov-09 23:00N 35°27' E 139°43'2 3.1
2017-Nov-09 22:31N 35°27' E 139°45'3 6.8
2017-Nov-09 22:00N 35°27' E 139°40'1 1.5
2017-Nov-09 21:30N 35°27' E 139°40'0 0.0
2017-Nov-09 07:17N 35°27' E 139°40'0 0.0
2017-Nov-09 07:00N 35°27' E 139°40'0 0.0
2017-Nov-09 06:30N 35°27' E 139°40'0 0.0
2017-Nov-09 06:00N 35°27' E 139°40'0 0.0
2017-Nov-09 05:30N 35°27' E 139°40'0 0.3
2017-Nov-09 05:00N 35°27' E 139°40'1 2.7
2017-Nov-09 04:30N 35°26' E 139°41'1 1.8
2017-Nov-09 04:00N 35°26' E 139°42'1 2.3
2017-Nov-09 03:30N 35°26' E 139°43'2 3.2
2017-Nov-09 03:00N 35°27' E 139°41'2 3.1
2017-Nov-09 02:30N 35°27' E 139°40'0 0.0
2017-Nov-09 02:00N 35°27' E 139°40'0 0.0
2017-Nov-09 01:30N 35°27' E 139°40'0 0.0
2017-Nov-09 01:00N 35°27' E 139°40'0 0.0
2017-Nov-09 00:30N 35°27' E 139°40'0 0.0
2017-Nov-09 00:00N 35°27' E 139°40'0 0.0
2017-Nov-08 23:30N 35°27' E 139°40'0 0.0
2017-Nov-08 23:00N 35°27' E 139°40'0 0.0
2017-Nov-08 22:30N 35°27' E 139°40'0 0.0
2017-Nov-08 22:00N 35°27' E 139°40'0 0.0
2017-Nov-08 21:30N 35°27' E 139°40'0 0.0
2017-Nov-08 21:00N 35°27' E 139°40'0 0.0
2017-Nov-08 20:30N 35°27' E 139°40'0 0.0
2017-Nov-08 20:00N 35°27' E 139°40'0 0.0
2017-Nov-08 19:30N 35°27' E 139°40'0 0.0
2017-Nov-08 19:00N 35°27' E 139°40'0 0.0
2017-Nov-08 18:30N 35°27' E 139°40'0 0.0
2017-Nov-08 18:00N 35°27' E 139°40'0 0.0
2017-Nov-08 17:30N 35°27' E 139°40'0 0.0
2017-Nov-08 17:00N 35°27' E 139°40'0 0.0
2017-Nov-08 16:30N 35°27' E 139°40'0 0.0
2017-Nov-08 16:00N 35°27' E 139°40'0 0.0
2017-Nov-08 15:30N 35°27' E 139°40'0 0.0
2017-Nov-08 15:00N 35°27' E 139°40'0 0.0
2017-Nov-08 14:30N 35°27' E 139°40'0 0.0
2017-Nov-08 14:00N 35°27' E 139°40'0 0.0
2017-Nov-08 13:30N 35°27' E 139°40'0 0.0
2017-Nov-08 13:00N 35°27' E 139°40'0 0.0
2017-Nov-08 12:30N 35°27' E 139°40'0 0.0
2017-Nov-08 12:00N 35°27' E 139°40'0 0.0
2017-Nov-08 11:30N 35°27' E 139°40'0 0.0
2017-Nov-08 11:00N 35°27' E 139°40'0 0.0
2017-Nov-08 10:30N 35°27' E 139°40'0 0.0
2017-Nov-08 10:00N 35°27' E 139°40'0 0.0
2017-Nov-08 09:30N 35°27' E 139°40'2 4.3
2017-Nov-08 09:01N 35°28' E 139°41'0 0.9
2017-Nov-08 08:30N 35°28' E 139°42'1 1.8
2017-Nov-08 08:00N 35°27' E 139°43'0 0.8
2017-Nov-08 07:30N 35°27' E 139°43'0 0.9
2017-Nov-08 07:00N 35°27' E 139°43'0 0.0
2017-Nov-08 06:30N 35°27' E 139°43'1 2.5
2017-Nov-08 06:00N 35°27' E 139°41'1 2.5
2017-Nov-08 05:30N 35°27' E 139°40'0 0.0
2017-Nov-08 05:00N 35°27' E 139°40'  

Dump ship's entire track history